Archival Weather

Chicago O'Hare International

Chicago, Illinois (KORD)

Report from: Friday, September 23, 2022 7:47 AM CDT
Current time: Sunday, December 4, 2022 6:04 AM CST

Current weather
Weather history
Weather forecast

Temperature12.0°C (53.6°F)
Dew point7.0°C (44.6°F)
Winds 7 kts (3.6 m/s, 8.1 mph) South (190°)
Visibility10 mi. (16.1 km)
Clouds Ceiling: Broken clouds 2,400 ft. (732 m)
Broken clouds 3,500 ft. (1,067 m)
Broken clouds 25,000 ft. (7,620 m)
Altimeter30.27 in.Hg (1025 mB)
Relative humidity71 %
Density altitude-611 ft. (-186 m)
Remarks Special weather observation
Automated weather observing station with precipitation discriminator
Flight conditions Marginal Visual Meteorological Conditions
Raw dataSPUS70 KWBC 231250 SPECI KORD 231247Z 19007KT 10SM BKN024 BKN035 BKN250 12/07 A3027 RMK AO2
An error has occurred. This application may no longer respond until reloaded. Reload 🗙